createdAt,value
2022-12-13T00:00:31.521Z,-1.70
2022-12-13T00:03:19.422Z,-1.80
2022-12-13T00:06:07.630Z,-1.80
2022-12-13T00:08:55.818Z,-1.80
2022-12-13T00:11:43.806Z,-1.70
2022-12-13T00:14:33.645Z,-1.80
2022-12-13T00:17:21.564Z,-1.60
2022-12-13T00:20:09.849Z,-1.40
2022-12-13T00:22:57.758Z,-1.40
2022-12-13T00:25:45.762Z,-1.40
2022-12-13T00:28:33.628Z,-1.40
2022-12-13T00:34:32.079Z,-1.40
2022-12-13T00:37:19.957Z,-1.40
2022-12-13T00:40:08.539Z,-1.60
2022-12-13T00:42:56.410Z,-1.80
2022-12-13T00:45:44.593Z,-1.80
2022-12-13T00:48:33.877Z,-1.80
2022-12-13T00:51:22.215Z,-1.80
2022-12-13T00:54:10.919Z,-1.90
2022-12-13T00:56:58.875Z,-1.80
2022-12-13T00:59:46.747Z,-1.80
2022-12-13T01:02:34.587Z,-1.80
2022-12-13T01:05:47.525Z,-2.00
2022-12-13T01:08:31.883Z,-1.80
2022-12-13T01:11:19.831Z,-1.80
2022-12-13T01:14:07.798Z,-1.70
2022-12-13T01:16:56.490Z,-1.70
2022-12-13T01:19:44.486Z,-1.70
2022-12-13T01:22:33.799Z,-1.80
2022-12-13T01:25:21.793Z,-1.90
2022-12-13T01:28:09.672Z,-1.90
2022-12-13T01:31:00.246Z,-2.00
2022-12-13T01:33:48.473Z,-2.10
2022-12-13T01:36:38.277Z,-2.00
2022-12-13T01:39:28.195Z,-2.00
2022-12-13T01:42:16.040Z,-2.00
2022-12-13T01:45:06.263Z,-2.00
2022-12-13T01:47:55.962Z,-2.10
2022-12-13T01:50:49.066Z,-2.10
2022-12-13T01:53:37.888Z,-2.10
2022-12-13T01:56:30.203Z,-2.10
2022-12-13T01:59:19.165Z,-2.10
2022-12-13T02:02:07.422Z,-2.00
2022-12-13T02:04:59.254Z,-2.10
2022-12-13T02:07:48.423Z,-2.00
2022-12-13T02:10:36.503Z,-2.00
2022-12-13T02:13:25.706Z,-2.10
2022-12-13T02:16:22.185Z,-2.00
2022-12-13T02:19:38.136Z,-2.10
2022-12-13T02:22:34.043Z,-2.10
2022-12-13T02:25:31.782Z,-2.10
2022-12-13T02:28:33.994Z,-2.10
2022-12-13T02:31:26.327Z,-2.00
2022-12-13T02:34:17.840Z,-2.00
2022-12-13T02:37:17.538Z,-1.90
2022-12-13T02:40:08.900Z,-1.90
2022-12-13T02:42:59.704Z,-1.90
2022-12-13T02:45:49.340Z,-2.00
2022-12-13T02:48:40.720Z,-2.00
2022-12-13T02:51:29.813Z,-2.00
2022-12-13T02:54:17.770Z,-2.10
2022-12-13T02:57:05.693Z,-2.20
2022-12-13T02:59:53.616Z,-2.30
2022-12-13T03:02:46.616Z,-2.30
2022-12-13T03:05:56.106Z,-2.40
2022-12-13T03:08:49.561Z,-2.40
2022-12-13T03:12:03.065Z,-2.20
2022-12-13T03:14:57.215Z,-2.20
2022-12-13T03:17:47.043Z,-2.40
2022-12-13T03:20:36.469Z,-2.50
2022-12-13T03:23:24.533Z,-2.50
2022-12-13T03:26:14.732Z,-2.50
2022-12-13T03:29:02.775Z,-2.40
2022-12-13T03:31:50.676Z,-2.40
2022-12-13T03:34:43.270Z,-2.50
2022-12-13T03:37:34.740Z,-2.60
2022-12-13T03:40:22.828Z,-2.40
2022-12-13T03:43:10.725Z,-2.40
2022-12-13T03:45:59.457Z,-2.60
2022-12-13T03:48:47.414Z,-2.70
2022-12-13T03:51:35.693Z,-2.80
2022-12-13T03:54:24.904Z,-2.80
2022-12-13T03:57:15.640Z,-2.90
2022-12-13T04:00:04.550Z,-3.00
2022-12-13T04:02:52.647Z,-3.00
2022-12-13T04:05:40.578Z,-3.00
2022-12-13T04:08:28.568Z,-3.00
2022-12-13T04:11:35.787Z,-3.00
2022-12-13T04:14:30.952Z,-3.00
2022-12-13T04:17:18.831Z,-3.00
2022-12-13T04:20:07.267Z,-3.00
2022-12-13T04:22:55.092Z,-3.20
2022-12-13T04:25:44.038Z,-3.20
2022-12-13T04:28:33.281Z,-3.20
2022-12-13T04:31:21.219Z,-3.10
2022-12-13T04:34:09.361Z,-3.20
2022-12-13T04:36:57.231Z,-3.20
2022-12-13T04:39:47.718Z,-3.20
2022-12-13T04:42:36.090Z,-3.20
2022-12-13T04:45:25.720Z,-3.20
2022-12-13T04:48:13.801Z,-3.10
2022-12-13T04:51:19.019Z,-3.00
2022-12-13T04:54:24.297Z,-3.10
2022-12-13T04:57:12.986Z,-3.20
2022-12-13T05:00:00.942Z,-3.30
2022-12-13T05:02:50.259Z,-3.40
2022-12-13T05:05:39.632Z,-3.40
2022-12-13T05:08:27.484Z,-3.20
2022-12-13T05:11:15.445Z,-3.30
2022-12-13T05:14:03.292Z,-3.30
2022-12-13T05:16:51.287Z,-3.30
2022-12-13T05:19:40.495Z,-3.20
2022-12-13T05:22:28.547Z,-3.20
2022-12-13T05:25:16.636Z,-3.40
2022-12-13T05:28:09.141Z,-3.50
2022-12-13T05:31:23.278Z,-3.50
2022-12-13T05:34:11.986Z,-3.50
2022-12-13T05:37:01.335Z,-3.40
2022-12-13T05:39:49.220Z,-3.40
2022-12-13T05:42:37.650Z,-3.50
2022-12-13T05:45:25.880Z,-3.50
2022-12-13T05:48:13.748Z,-3.30
2022-12-13T05:51:10.413Z,-3.20
2022-12-13T05:54:00.781Z,-3.20
2022-12-13T05:56:48.712Z,-3.20
2022-12-13T05:59:36.595Z,-3.30
2022-12-13T06:02:24.778Z,-3.40
2022-12-13T06:05:13.388Z,-3.50
2022-12-13T06:08:01.575Z,-3.50
2022-12-13T06:11:10.613Z,-3.50
2022-12-13T06:14:00.898Z,-3.30
2022-12-13T06:16:50.217Z,-3.40
2022-12-13T06:19:38.283Z,-3.30
2022-12-13T06:22:26.159Z,-3.40
2022-12-13T06:25:31.345Z,-3.40
2022-12-13T06:28:21.363Z,-3.40
2022-12-13T06:31:09.502Z,-3.50
2022-12-13T06:33:57.399Z,-3.60
2022-12-13T06:36:45.366Z,-3.60
2022-12-13T06:39:33.745Z,-3.30
2022-12-13T06:42:22.497Z,-3.20
2022-12-13T06:45:12.244Z,-3.40
2022-12-13T06:48:00.156Z,-3.50
2022-12-13T06:50:48.012Z,-3.70
2022-12-13T06:53:36.942Z,-3.70
2022-12-13T06:56:24.853Z,-3.70
2022-12-13T06:59:13.198Z,-3.70
2022-12-13T07:02:03.797Z,-3.70
2022-12-13T07:04:52.204Z,-3.70
2022-12-13T07:07:40.074Z,-3.80
2022-12-13T07:10:28.087Z,-3.80
2022-12-13T07:13:15.941Z,-3.70
2022-12-13T07:16:04.021Z,-3.70
2022-12-13T07:19:01.336Z,-3.60
2022-12-13T07:21:49.507Z,-3.40
2022-12-13T07:24:37.453Z,-3.50
2022-12-13T07:27:25.349Z,-3.60
2022-12-13T07:30:13.839Z,-3.70
2022-12-13T07:33:02.562Z,-3.80
2022-12-13T07:35:55.343Z,-3.80
2022-12-13T07:38:43.793Z,-3.70
2022-12-13T07:41:33.172Z,-3.50
2022-12-13T07:44:21.263Z,-3.60
2022-12-13T07:47:09.165Z,-3.70
2022-12-13T07:49:57.036Z,-3.70
2022-12-13T07:52:46.247Z,-3.70
2022-12-13T07:55:34.635Z,-3.70
2022-12-13T07:58:22.711Z,-3.80
2022-12-13T08:01:12.032Z,-3.80
2022-12-13T08:03:59.908Z,-3.90
2022-12-13T08:06:47.833Z,-3.90
2022-12-13T08:09:37.348Z,-4.00
2022-12-13T08:12:25.226Z,-4.10
2022-12-13T08:15:14.248Z,-4.00
2022-12-13T08:18:03.991Z,-4.00
2022-12-13T08:20:51.939Z,-3.80
2022-12-13T08:23:39.819Z,-3.70
2022-12-13T08:26:29.194Z,-3.70
2022-12-13T08:29:23.128Z,-3.70
2022-12-13T08:32:21.791Z,-3.70
2022-12-13T08:35:09.824Z,-3.70
2022-12-13T08:37:57.860Z,-3.70
2022-12-13T08:40:48.960Z,-3.70
2022-12-13T08:43:41.263Z,-3.70
2022-12-13T08:46:29.334Z,-3.60
2022-12-13T08:49:17.340Z,-3.50
2022-12-13T08:52:05.511Z,-3.40
2022-12-13T08:54:53.640Z,-3.40
2022-12-13T08:57:42.553Z,-3.50
2022-12-13T09:00:35.680Z,-3.50
2022-12-13T09:03:24.515Z,-3.50
2022-12-13T09:06:13.896Z,-3.60
2022-12-13T09:09:03.601Z,-3.70
2022-12-13T09:11:51.702Z,-3.70
2022-12-13T09:14:47.289Z,-3.70
2022-12-13T09:17:37.508Z,-3.70
2022-12-13T09:20:32.563Z,-3.80
2022-12-13T09:23:29.566Z,-3.80
2022-12-13T09:26:25.192Z,-3.60
2022-12-13T09:29:16.314Z,-3.40
2022-12-13T09:32:04.295Z,-3.30
2022-12-13T09:34:53.724Z,-3.20
2022-12-13T09:37:45.847Z,-3.10
2022-12-13T09:40:37.544Z,-3.00
2022-12-13T09:43:31.763Z,-3.00
2022-12-13T09:46:24.219Z,-2.90
2022-12-13T09:49:14.518Z,-2.90
2022-12-13T09:52:21.499Z,-3.00
2022-12-13T09:55:19.654Z,-3.10
2022-12-13T09:58:10.062Z,-3.20
2022-12-13T10:00:58.813Z,-3.10
2022-12-13T10:03:48.296Z,-3.00
2022-12-13T10:06:37.755Z,-2.70
2022-12-13T10:09:27.028Z,-2.70
2022-12-13T10:12:16.378Z,-2.60
2022-12-13T10:15:05.197Z,-2.50
2022-12-13T10:17:55.380Z,-2.40
2022-12-13T10:20:44.330Z,-2.30
2022-12-13T10:23:47.051Z,-2.30
2022-12-13T10:26:42.148Z,-2.30
2022-12-13T10:29:30.196Z,-2.40
2022-12-13T10:32:19.549Z,-2.30
2022-12-13T10:35:13.492Z,-2.20
2022-12-13T10:38:02.823Z,-2.10
2022-12-13T10:40:51.175Z,-2.00
2022-12-13T10:43:40.561Z,-1.90
2022-12-13T10:46:31.196Z,-1.80
2022-12-13T10:49:28.015Z,-1.80
2022-12-13T10:52:31.244Z,-1.90
2022-12-13T10:55:26.085Z,-2.00
2022-12-13T10:58:19.461Z,-2.00
2022-12-13T11:01:23.918Z,-1.80
2022-12-13T11:04:25.525Z,-1.70
2022-12-13T11:07:23.474Z,-1.90
2022-12-13T11:10:23.641Z,-1.90
2022-12-13T11:13:25.268Z,-1.90
2022-12-13T11:16:21.822Z,-1.80
2022-12-13T11:19:17.983Z,-1.80
2022-12-13T11:22:06.041Z,-1.60
2022-12-13T11:24:56.427Z,-1.50
2022-12-13T11:27:56.907Z,-1.60
2022-12-13T11:30:47.450Z,-1.60
2022-12-13T11:33:48.372Z,-1.80
2022-12-13T11:36:42.443Z,-1.90
2022-12-13T11:39:32.047Z,-1.80
2022-12-13T11:42:22.543Z,-1.70
2022-12-13T11:45:13.649Z,-1.70
2022-12-13T11:48:14.084Z,-1.50
2022-12-13T11:51:02.307Z,-1.40
2022-12-13T11:53:56.260Z,-1.30
2022-12-13T11:56:44.948Z,-1.20
2022-12-13T11:59:39.853Z,-1.40
2022-12-13T12:02:31.350Z,-1.40
2022-12-13T12:05:25.961Z,-1.40
2022-12-13T12:08:33.508Z,-1.30
2022-12-13T12:11:29.103Z,-1.10
2022-12-13T12:14:19.679Z,-1.00
2022-12-13T12:17:07.743Z,-0.90
2022-12-13T12:19:57.339Z,-0.90
2022-12-13T12:22:51.283Z,-0.90
2022-12-13T12:25:44.765Z,-0.80
2022-12-13T12:28:44.291Z,-0.70
2022-12-13T12:31:34.904Z,-0.70
2022-12-13T12:34:41.721Z,-0.70
2022-12-13T12:37:34.349Z,-0.80
2022-12-13T12:41:14.407Z,-0.70
2022-12-13T12:43:44.694Z,-0.70
2022-12-13T12:47:01.607Z,-0.60
2022-12-13T12:50:09.022Z,-0.60
2022-12-13T12:53:01.016Z,-0.70
2022-12-13T12:55:52.662Z,-0.60
2022-12-13T12:58:43.851Z,-0.70
2022-12-13T13:01:43.607Z,-0.70
2022-12-13T13:04:35.687Z,-0.70
2022-12-13T13:07:26.170Z,-0.90
2022-12-13T13:10:25.706Z,-0.90
2022-12-13T13:13:34.725Z,-0.90
2022-12-13T13:16:30.875Z,-1.10
2022-12-13T13:19:39.179Z,-1.20
2022-12-13T13:22:32.856Z,-1.20
2022-12-13T13:25:26.887Z,-1.30
2022-12-13T13:28:16.570Z,-1.30
2022-12-13T13:31:05.696Z,-1.40
2022-12-13T13:33:53.700Z,-1.40
2022-12-13T13:36:47.883Z,-1.50
2022-12-13T13:39:55.678Z,-1.60
2022-12-13T13:43:03.961Z,-1.60
2022-12-13T13:45:57.529Z,-1.70
2022-12-13T13:48:49.427Z,-1.70
2022-12-13T13:55:30.627Z,-1.70
2022-12-13T13:58:39.559Z,-1.70
2022-12-13T14:01:45.640Z,-1.80
2022-12-13T14:04:47.470Z,-1.90
2022-12-13T14:07:48.429Z,-2.00
2022-12-13T14:10:43.983Z,-2.00
2022-12-13T14:13:53.094Z,-2.10
2022-12-13T14:16:58.954Z,-2.10
2022-12-13T14:20:07.478Z,-2.10
2022-12-13T14:22:59.254Z,-2.20
2022-12-13T14:26:03.545Z,-2.20
2022-12-13T14:28:53.861Z,-2.30
2022-12-13T14:31:42.976Z,-2.30
2022-12-13T14:34:31.810Z,-2.30
2022-12-13T14:37:28.189Z,-2.30
2022-12-13T14:40:25.250Z,-2.40
2022-12-13T14:43:24.155Z,-2.40
2022-12-13T14:46:14.778Z,-2.50
2022-12-13T14:49:07.530Z,-2.50
2022-12-13T14:52:01.306Z,-2.50
2022-12-13T14:54:57.921Z,-2.50
2022-12-13T14:57:52.261Z,-2.60
2022-12-13T15:00:41.133Z,-2.60
2022-12-13T15:03:29.609Z,-2.60
2022-12-13T15:06:19.369Z,-2.70
2022-12-13T15:09:11.164Z,-2.70
2022-12-13T15:12:23.496Z,-2.70
2022-12-13T15:15:15.726Z,-2.70
2022-12-13T15:18:08.345Z,-2.70
2022-12-13T15:20:57.142Z,-2.80
2022-12-13T15:23:49.508Z,-2.80
2022-12-13T15:26:37.899Z,-2.90
2022-12-13T15:29:27.856Z,-2.90
2022-12-13T15:32:19.030Z,-2.90
2022-12-13T15:35:16.091Z,-2.70
2022-12-13T15:38:04.001Z,-2.60
2022-12-13T15:40:51.928Z,-2.70
2022-12-13T15:43:45.507Z,-2.70
2022-12-13T15:46:37.671Z,-2.70
2022-12-13T15:49:29.338Z,-2.60
2022-12-13T15:52:25.615Z,-2.60
2022-12-13T15:55:28.494Z,-2.50
2022-12-13T15:58:25.583Z,-2.60
2022-12-13T16:01:25.784Z,-2.50
2022-12-13T16:04:23.091Z,-2.40
2022-12-13T16:07:21.422Z,-2.40
2022-12-13T16:10:09.654Z,-2.50
2022-12-13T16:13:00.150Z,-2.50
2022-12-13T16:16:00.141Z,-2.60
2022-12-13T16:18:57.546Z,-2.80
2022-12-13T16:21:46.902Z,-3.00
2022-12-13T16:24:34.734Z,-3.00
2022-12-13T16:27:22.605Z,-2.90
2022-12-13T16:30:14.475Z,-2.80
2022-12-13T16:33:18.750Z,-2.80
2022-12-13T16:36:07.313Z,-2.80
2022-12-13T16:38:56.624Z,-2.80
2022-12-13T16:41:45.888Z,-2.80
2022-12-13T16:44:35.164Z,-2.70
2022-12-13T16:47:36.456Z,-2.70
2022-12-13T16:50:29.632Z,-2.70
2022-12-13T16:53:18.045Z,-2.70
2022-12-13T16:56:11.487Z,-2.60
2022-12-13T16:59:01.622Z,-2.70
2022-12-13T17:01:53.145Z,-2.80
2022-12-13T17:04:44.091Z,-3.00
2022-12-13T17:07:32.223Z,-3.20
2022-12-13T17:10:21.122Z,-3.40
2022-12-13T17:13:10.360Z,-3.50
2022-12-13T17:16:00.071Z,-3.60
2022-12-13T17:18:54.083Z,-3.70
2022-12-13T17:21:42.059Z,-3.70
2022-12-13T17:24:31.266Z,-3.80
2022-12-13T17:27:19.391Z,-3.80
2022-12-13T17:30:09.891Z,-3.80
2022-12-13T17:32:59.286Z,-3.80
2022-12-13T17:35:47.705Z,-3.90
2022-12-13T17:38:35.894Z,-4.00
2022-12-13T17:41:23.955Z,-3.90
2022-12-13T17:44:12.002Z,-3.90
2022-12-13T17:47:01.263Z,-3.90
2022-12-13T17:49:49.081Z,-3.90
2022-12-13T17:52:37.460Z,-3.90
2022-12-13T17:55:25.336Z,-3.90
2022-12-13T17:58:13.437Z,-3.90
2022-12-13T18:01:10.356Z,-4.00
2022-12-13T18:04:00.136Z,-4.00
2022-12-13T18:06:48.141Z,-4.00
2022-12-13T18:09:36.076Z,-3.90
2022-12-13T18:12:24.135Z,-4.00
2022-12-13T18:15:11.996Z,-4.00
2022-12-13T18:18:15.447Z,-4.00
2022-12-13T18:21:05.931Z,-4.00
2022-12-13T18:23:55.567Z,-4.00
2022-12-13T18:26:44.115Z,-3.90
2022-12-13T18:29:32.153Z,-3.70
2022-12-13T18:32:20.056Z,-3.50
2022-12-13T18:35:08.847Z,-3.40
2022-12-13T18:37:58.694Z,-3.30
2022-12-13T18:40:46.506Z,-3.20
2022-12-13T18:43:34.494Z,-3.30
2022-12-13T18:46:22.737Z,-3.30
2022-12-13T18:49:11.142Z,-3.40
2022-12-13T18:51:59.067Z,-3.70
2022-12-13T18:54:54.787Z,-3.80
2022-12-13T18:57:43.668Z,-3.80
2022-12-13T19:00:31.623Z,-3.80
2022-12-13T19:03:19.632Z,-3.90
2022-12-13T19:06:08.395Z,-4.00
2022-12-13T19:08:57.276Z,-4.00
2022-12-13T19:11:46.534Z,-4.00
2022-12-13T19:14:34.425Z,-4.10
2022-12-13T19:17:22.326Z,-4.10
2022-12-13T19:20:10.515Z,-4.00
2022-12-13T19:22:58.396Z,-4.00
2022-12-13T19:25:48.571Z,-3.80
2022-12-13T19:28:38.836Z,-3.80
2022-12-13T19:31:31.765Z,-3.90
2022-12-13T19:34:20.352Z,-4.00
2022-12-13T19:37:08.581Z,-3.90
2022-12-13T19:39:56.442Z,-3.80
2022-12-13T19:42:45.453Z,-3.90
2022-12-13T19:45:35.089Z,-3.90
2022-12-13T19:48:24.630Z,-3.80
2022-12-13T19:51:12.514Z,-3.80
2022-12-13T19:54:00.978Z,-3.90
2022-12-13T19:56:49.123Z,-3.90
2022-12-13T19:59:37.412Z,-4.00
2022-12-13T20:02:27.360Z,-4.00
2022-12-13T20:05:15.829Z,-3.90
2022-12-13T20:08:03.894Z,-3.60
2022-12-13T20:10:57.909Z,-3.30
2022-12-13T20:13:46.365Z,-3.40
2022-12-13T20:16:34.400Z,-3.60
2022-12-13T20:19:28.740Z,-3.80
2022-12-13T20:22:16.819Z,-3.90
2022-12-13T20:25:05.636Z,-4.10
2022-12-13T20:27:53.505Z,-4.20
2022-12-13T20:30:41.403Z,-4.20
2022-12-13T20:33:32.226Z,-4.20
2022-12-13T20:36:24.793Z,-4.30
2022-12-13T20:39:14.538Z,-4.30
2022-12-13T20:42:02.391Z,-4.20
2022-12-13T20:44:50.960Z,-4.30
2022-12-13T20:47:38.939Z,-4.20
2022-12-13T20:50:26.822Z,-4.20
2022-12-13T20:53:16.226Z,-4.30
2022-12-13T20:56:04.483Z,-4.20
2022-12-13T20:58:52.641Z,-4.20
2022-12-13T21:01:41.589Z,-4.20
2022-12-13T21:04:30.052Z,-4.20
2022-12-13T21:07:38.317Z,-4.10
2022-12-13T21:10:27.745Z,-4.10
2022-12-13T21:13:15.997Z,-4.20
2022-12-13T21:16:06.485Z,-4.10
2022-12-13T21:18:55.503Z,-4.10
2022-12-13T21:21:44.528Z,-4.20
2022-12-13T21:24:32.490Z,-4.20
2022-12-13T21:27:21.727Z,-4.20
2022-12-13T21:30:10.218Z,-4.20
2022-12-13T21:32:58.122Z,-4.20
2022-12-13T21:35:46.300Z,-4.20
2022-12-13T21:38:34.205Z,-4.20
2022-12-13T21:41:22.433Z,-4.30
2022-12-13T21:44:13.216Z,-4.20
2022-12-13T21:47:16.352Z,-4.20
2022-12-13T21:50:04.275Z,-4.20
2022-12-13T21:52:52.181Z,-4.20
2022-12-13T21:55:43.054Z,-4.20
2022-12-13T21:58:48.559Z,-4.20
2022-12-13T22:01:55.197Z,-4.20
2022-12-13T22:04:44.381Z,-4.20
2022-12-13T22:07:33.872Z,-4.30
2022-12-13T22:10:22.119Z,-4.20
2022-12-13T22:13:10.095Z,-4.20
2022-12-13T22:15:58.596Z,-4.10
2022-12-13T22:18:47.944Z,-4.10
2022-12-13T22:21:35.763Z,-4.10
2022-12-13T22:24:23.805Z,-4.10
2022-12-13T22:27:11.743Z,-4.00
2022-12-13T22:29:59.952Z,-4.10
2022-12-13T22:32:47.842Z,-4.00
2022-12-13T22:35:38.388Z,-4.00
2022-12-13T22:38:26.639Z,-4.00
2022-12-13T22:41:16.203Z,-3.90
2022-12-13T22:44:04.145Z,-3.90
2022-12-13T22:46:52.035Z,-4.00
2022-12-13T22:49:40.107Z,-3.90
2022-12-13T22:52:33.717Z,-3.90
2022-12-13T22:55:24.516Z,-3.80
2022-12-13T22:58:12.392Z,-3.80
2022-12-13T23:01:00.478Z,-3.70
2022-12-13T23:03:48.748Z,-3.60
2022-12-13T23:06:37.484Z,-3.60
2022-12-13T23:09:26.694Z,-3.70
2022-12-13T23:12:32.146Z,-3.80
2022-12-13T23:15:20.190Z,-3.90
2022-12-13T23:18:08.043Z,-4.00
2022-12-13T23:20:56.044Z,-4.00
2022-12-13T23:23:43.923Z,-4.00
2022-12-13T23:26:34.007Z,-4.00
2022-12-13T23:29:21.877Z,-4.00
2022-12-13T23:32:09.763Z,-4.00
2022-12-13T23:34:58.103Z,-4.00
2022-12-13T23:37:46.003Z,-4.00
2022-12-13T23:40:36.416Z,-4.00
2022-12-13T23:43:25.664Z,-4.00
2022-12-13T23:46:15.012Z,-4.00
2022-12-13T23:49:03.845Z,-4.00
2022-12-13T23:51:52.111Z,-4.00
2022-12-13T23:54:40.080Z,-4.10
2022-12-13T23:57:28.041Z,-4.00
